Terminal Aerodrome Forecast
Issued by NWS Twin Cities, MN

Home | Current Version | Previous Version | Graphics & Text | Print | Product List | Glossary On
Versions: 1 2 3 4 5 6 7 8 9 10 11 12 13 14 15 16
000
FTUS43 KMPX 201135
TAFSTC
TAF
KSTC 201135Z 2012/2112 15004KT P6SM BKN250
     FM201600 18009KT P6SM BKN200
     FM202200 22011KT P6SM BKN150
     FM210300 26011KT P6SM FEW200
     FM210500 29014G22KT P6SM SCT200
     FM210800 30020G28KT P6SM OVC050=

USA.gov is the U.S. government's official web portal to all federal, state and local government web resources and services.